sensor_id;sensor_type;location;lat;lon;timestamp;P1;durP1;ratioP1;P2;durP2;ratioP2
70420;SDS011;57848;51.938;15.520;2024-02-26T00:02:15;19.20;;;8.88;;
70420;SDS011;57848;51.938;15.520;2024-02-26T00:04:41;22.38;;;9.20;;
70420;SDS011;57848;51.938;15.520;2024-02-26T00:07:06;18.50;;;9.57;;
70420;SDS011;57848;51.938;15.520;2024-02-26T00:09:32;17.33;;;9.33;;
70420;SDS011;57848;51.938;15.520;2024-02-26T00:12:01;17.75;;;8.93;;
70420;SDS011;57848;51.938;15.520;2024-02-26T00:14:28;17.65;;;8.55;;
70420;SDS011;57848;51.938;15.520;2024-02-26T00:16:54;16.98;;;8.40;;
70420;SDS011;57848;51.938;15.520;2024-02-26T00:19:20;21.10;;;9.07;;
70420;SDS011;57848;51.938;15.520;2024-02-26T00:21:45;19.37;;;9.37;;
70420;SDS011;57848;51.938;15.520;2024-02-26T00:24:11;23.40;;;10.80;;
70420;SDS011;57848;51.938;15.520;2024-02-26T00:26:36;27.15;;;11.90;;
70420;SDS011;57848;51.938;15.520;2024-02-26T00:29:01;23.77;;;10.47;;
70420;SDS011;57848;51.938;15.520;2024-02-26T00:31:27;20.03;;;9.10;;
70420;SDS011;57848;51.938;15.520;2024-02-26T00:33:52;20.27;;;9.85;;
70420;SDS011;57848;51.938;15.520;2024-02-26T00:36:18;20.93;;;9.73;;
70420;SDS011;57848;51.938;15.520;2024-02-26T00:38:44;21.55;;;11.13;;
70420;SDS011;57848;51.938;15.520;2024-02-26T00:41:11;26.53;;;12.13;;
70420;SDS011;57848;51.938;15.520;2024-02-26T00:43:37;21.90;;;11.38;;
70420;SDS011;57848;51.938;15.520;2024-02-26T00:46:04;18.05;;;9.85;;
70420;SDS011;57848;51.938;15.520;2024-02-26T00:48:29;20.67;;;11.10;;
70420;SDS011;57848;51.938;15.520;2024-02-26T00:50:55;18.57;;;10.33;;
70420;SDS011;57848;51.938;15.520;2024-02-26T00:53:20;19.03;;;9.37;;
70420;SDS011;57848;51.938;15.520;2024-02-26T00:55:46;20.80;;;10.18;;
70420;SDS011;57848;51.938;15.520;2024-02-26T00:58:11;20.47;;;11.00;;
70420;SDS011;57848;51.938;15.520;2024-02-26T01:00:37;19.47;;;10.57;;
70420;SDS011;57848;51.938;15.520;2024-02-26T01:03:02;18.27;;;9.60;;
70420;SDS011;57848;51.938;15.520;2024-02-26T01:05:28;20.83;;;9.68;;
70420;SDS011;57848;51.938;15.520;2024-02-26T01:07:54;20.20;;;10.13;;
70420;SDS011;57848;51.938;15.520;2024-02-26T01:10:19;18.03;;;9.27;;
70420;SDS011;57848;51.938;15.520;2024-02-26T01:12:45;20.75;;;10.52;;
70420;SDS011;57848;51.938;15.520;2024-02-26T01:15:10;24.17;;;11.90;;
70420;SDS011;57848;51.938;15.520;2024-02-26T01:17:35;25.67;;;12.50;;
70420;SDS011;57848;51.938;15.520;2024-02-26T01:20:01;27.63;;;13.53;;
70420;SDS011;57848;51.938;15.520;2024-02-26T01:22:26;29.83;;;13.35;;
70420;SDS011;57848;51.938;15.520;2024-02-26T01:24:52;29.83;;;13.27;;
70420;SDS011;57848;51.938;15.520;2024-02-26T01:27:17;33.03;;;14.87;;
70420;SDS011;57848;51.938;15.520;2024-02-26T01:29:43;28.77;;;14.13;;
70420;SDS011;57848;51.938;15.520;2024-02-26T01:32:08;25.10;;;12.13;;
70420;SDS011;57848;51.938;15.520;2024-02-26T01:34:33;23.77;;;11.55;;
70420;SDS011;57848;51.938;15.520;2024-02-26T01:36:59;25.20;;;10.97;;
70420;SDS011;57848;51.938;15.520;2024-02-26T01:39:25;27.55;;;13.20;;
70420;SDS011;57848;51.938;15.520;2024-02-26T01:41:52;27.70;;;14.55;;
70420;SDS011;57848;51.938;15.520;2024-02-26T01:44:18;28.83;;;14.17;;
70420;SDS011;57848;51.938;15.520;2024-02-26T01:46:43;24.53;;;13.17;;
70420;SDS011;57848;51.938;15.520;2024-02-26T01:49:08;23.87;;;11.20;;
70420;SDS011;57848;51.938;15.520;2024-02-26T01:51:37;26.35;;;11.55;;
70420;SDS011;57848;51.938;15.520;2024-02-26T01:54:05;24.13;;;11.38;;
70420;SDS011;57848;51.938;15.520;2024-02-26T01:56:33;24.35;;;11.65;;
70420;SDS011;57848;51.938;15.520;2024-02-26T01:58:59;25.50;;;11.10;;
70420;SDS011;57848;51.938;15.520;2024-02-26T02:01:27;21.17;;;10.55;;
70420;SDS011;57848;51.938;15.520;2024-02-26T02:03:54;25.65;;;12.32;;
70420;SDS011;57848;51.938;15.520;2024-02-26T02:06:22;22.10;;;11.48;;
70420;SDS011;57848;51.938;15.520;2024-02-26T02:08:48;25.63;;;11.88;;
70420;SDS011;57848;51.938;15.520;2024-02-26T02:11:14;26.97;;;13.53;;
70420;SDS011;57848;51.938;15.520;2024-02-26T02:13:40;29.10;;;13.77;;
70420;SDS011;57848;51.938;15.520;2024-02-26T02:16:05;28.77;;;11.65;;
70420;SDS011;57848;51.938;15.520;2024-02-26T02:18:31;26.85;;;12.50;;
70420;SDS011;57848;51.938;15.520;2024-02-26T02:20:59;29.73;;;13.77;;
70420;SDS011;57848;51.938;15.520;2024-02-26T02:23:25;27.13;;;13.60;;
70420;SDS011;57848;51.938;15.520;2024-02-26T02:25:51;26.17;;;12.17;;
70420;SDS011;57848;51.938;15.520;2024-02-26T02:28:17;25.73;;;10.55;;
70420;SDS011;57848;51.938;15.520;2024-02-26T02:30:42;25.93;;;11.43;;
70420;SDS011;57848;51.938;15.520;2024-02-26T02:33:08;23.93;;;11.27;;
70420;SDS011;57848;51.938;15.520;2024-02-26T02:35:33;22.40;;;11.50;;
70420;SDS011;57848;51.938;15.520;2024-02-26T02:37:59;20.98;;;9.35;;
70420;SDS011;57848;51.938;15.520;2024-02-26T02:40:24;24.43;;;10.40;;
70420;SDS011;57848;51.938;15.520;2024-02-26T02:42:50;20.13;;;9.63;;
70420;SDS011;57848;51.938;15.520;2024-02-26T02:45:15;20.73;;;9.73;;
70420;SDS011;57848;51.938;15.520;2024-02-26T02:47:40;19.27;;;9.47;;
70420;SDS011;57848;51.938;15.520;2024-02-26T02:50:06;21.80;;;9.30;;
70420;SDS011;57848;51.938;15.520;2024-02-26T02:52:31;21.20;;;9.50;;
70420;SDS011;57848;51.938;15.520;2024-02-26T02:54:57;19.43;;;9.53;;
70420;SDS011;57848;51.938;15.520;2024-02-26T02:57:23;20.13;;;9.70;;
70420;SDS011;57848;51.938;15.520;2024-02-26T02:59:48;19.60;;;8.97;;
70420;SDS011;57848;51.938;15.520;2024-02-26T03:02:14;22.53;;;10.00;;
70420;SDS011;57848;51.938;15.520;2024-02-26T03:04:39;19.83;;;9.23;;
70420;SDS011;57848;51.938;15.520;2024-02-26T03:07:04;21.13;;;9.67;;
70420;SDS011;57848;51.938;15.520;2024-02-26T03:09:30;20.83;;;9.23;;
70420;SDS011;57848;51.938;15.520;2024-02-26T03:11:55;20.83;;;9.70;;
70420;SDS011;57848;51.938;15.520;2024-02-26T03:14:21;18.87;;;9.20;;
70420;SDS011;57848;51.938;15.520;2024-02-26T03:16:46;19.43;;;9.00;;
70420;SDS011;57848;51.938;15.520;2024-02-26T03:19:14;20.23;;;9.97;;
70420;SDS011;57848;51.938;15.520;2024-02-26T03:21:41;19.17;;;8.82;;
70420;SDS011;57848;51.938;15.520;2024-02-26T03:24:07;22.38;;;9.77;;
70420;SDS011;57848;51.938;15.520;2024-02-26T03:26:35;24.25;;;9.65;;
70420;SDS011;57848;51.938;15.520;2024-02-26T03:29:01;25.42;;;9.65;;
70420;SDS011;57848;51.938;15.520;2024-02-26T03:31:27;20.67;;;9.33;;
70420;SDS011;57848;51.938;15.520;2024-02-26T03:33:53;21.00;;;10.52;;
70420;SDS011;57848;51.938;15.520;2024-02-26T03:36:18;24.13;;;10.57;;
70420;SDS011;57848;51.938;15.520;2024-02-26T03:38:43;27.33;;;12.00;;
70420;SDS011;57848;51.938;15.520;2024-02-26T03:41:09;27.53;;;12.07;;
70420;SDS011;57848;51.938;15.520;2024-02-26T03:43:34;22.83;;;11.07;;
70420;SDS011;57848;51.938;15.520;2024-02-26T03:46:00;26.50;;;12.60;;
70420;SDS011;57848;51.938;15.520;2024-02-26T03:48:25;24.00;;;12.63;;
70420;SDS011;57848;51.938;15.520;2024-02-26T03:50:50;26.27;;;12.63;;
70420;SDS011;57848;51.938;15.520;2024-02-26T03:53:16;24.87;;;12.43;;
70420;SDS011;57848;51.938;15.520;2024-02-26T03:55:41;26.88;;;12.50;;
70420;SDS011;57848;51.938;15.520;2024-02-26T03:58:07;26.73;;;13.23;;
70420;SDS011;57848;51.938;15.520;2024-02-26T04:00:33;27.50;;;13.90;;
70420;SDS011;57848;51.938;15.520;2024-02-26T04:02:58;33.00;;;13.70;;
70420;SDS011;57848;51.938;15.520;2024-02-26T04:05:24;35.10;;;14.17;;
70420;SDS011;57848;51.938;15.520;2024-02-26T04:07:49;32.15;;;14.73;;
70420;SDS011;57848;51.938;15.520;2024-02-26T04:10:15;32.23;;;14.67;;
70420;SDS011;57848;51.938;15.520;2024-02-26T04:12:40;36.37;;;15.60;;
70420;SDS011;57848;51.938;15.520;2024-02-26T04:15:07;25.45;;;13.60;;
70420;SDS011;57848;51.938;15.520;2024-02-26T04:17:34;30.00;;;14.23;;
70420;SDS011;57848;51.938;15.520;2024-02-26T04:19:59;26.33;;;13.07;;
70420;SDS011;57848;51.938;15.520;2024-02-26T04:22:24;29.23;;;13.37;;
70420;SDS011;57848;51.938;15.520;2024-02-26T04:24:50;33.20;;;14.27;;
70420;SDS011;57848;51.938;15.520;2024-02-26T04:27:15;31.13;;;14.17;;
70420;SDS011;57848;51.938;15.520;2024-02-26T04:29:41;30.02;;;13.73;;
70420;SDS011;57848;51.938;15.520;2024-02-26T04:32:06;28.80;;;13.20;;
70420;SDS011;57848;51.938;15.520;2024-02-26T04:34:31;29.00;;;14.20;;
70420;SDS011;57848;51.938;15.520;2024-02-26T04:36:57;28.27;;;13.07;;
70420;SDS011;57848;51.938;15.520;2024-02-26T04:39:22;28.00;;;12.47;;
70420;SDS011;57848;51.938;15.520;2024-02-26T04:41:47;24.90;;;11.30;;
70420;SDS011;57848;51.938;15.520;2024-02-26T04:44:13;23.80;;;12.50;;
70420;SDS011;57848;51.938;15.520;2024-02-26T04:46:38;25.30;;;11.00;;
70420;SDS011;57848;51.938;15.520;2024-02-26T04:49:04;23.47;;;12.70;;
70420;SDS011;57848;51.938;15.520;2024-02-26T04:51:29;24.13;;;11.30;;
70420;SDS011;57848;51.938;15.520;2024-02-26T04:53:55;22.07;;;11.27;;
70420;SDS011;57848;51.938;15.520;2024-02-26T04:56:21;24.93;;;11.40;;
70420;SDS011;57848;51.938;15.520;2024-02-26T04:58:46;20.50;;;10.35;;
70420;SDS011;57848;51.938;15.520;2024-02-26T05:01:12;24.40;;;10.80;;
70420;SDS011;57848;51.938;15.520;2024-02-26T05:03:37;20.53;;;9.77;;
70420;SDS011;57848;51.938;15.520;2024-02-26T05:06:03;19.55;;;9.82;;
70420;SDS011;57848;51.938;15.520;2024-02-26T05:08:30;21.57;;;9.60;;
70420;SDS011;57848;51.938;15.520;2024-02-26T05:10:56;20.63;;;9.60;;
70420;SDS011;57848;51.938;15.520;2024-02-26T05:13:21;19.02;;;9.90;;
70420;SDS011;57848;51.938;15.520;2024-02-26T05:15:47;22.03;;;10.50;;
70420;SDS011;57848;51.938;15.520;2024-02-26T05:18:14;23.20;;;10.60;;
70420;SDS011;57848;51.938;15.520;2024-02-26T05:20:40;18.27;;;9.23;;
70420;SDS011;57848;51.938;15.520;2024-02-26T05:23:05;18.10;;;9.30;;
70420;SDS011;57848;51.938;15.520;2024-02-26T05:25:31;19.10;;;9.43;;
70420;SDS011;57848;51.938;15.520;2024-02-26T05:27:56;16.33;;;9.23;;
70420;SDS011;57848;51.938;15.520;2024-02-26T05:30:22;19.97;;;10.03;;
70420;SDS011;57848;51.938;15.520;2024-02-26T05:32:47;18.80;;;9.27;;
70420;SDS011;57848;51.938;15.520;2024-02-26T05:35:12;20.70;;;9.43;;
70420;SDS011;57848;51.938;15.520;2024-02-26T05:37:38;17.93;;;9.20;;
70420;SDS011;57848;51.938;15.520;2024-02-26T05:40:04;17.80;;;8.97;;
70420;SDS011;57848;51.938;15.520;2024-02-26T05:42:30;20.85;;;9.75;;
70420;SDS011;57848;51.938;15.520;2024-02-26T05:44:56;18.88;;;9.32;;
70420;SDS011;57848;51.938;15.520;2024-02-26T05:47:22;19.03;;;9.20;;
70420;SDS011;57848;51.938;15.520;2024-02-26T05:49:47;20.17;;;9.87;;
70420;SDS011;57848;51.938;15.520;2024-02-26T05:52:13;19.92;;;9.52;;
70420;SDS011;57848;51.938;15.520;2024-02-26T05:54:39;19.50;;;10.07;;
70420;SDS011;57848;51.938;15.520;2024-02-26T05:57:04;20.90;;;10.65;;
70420;SDS011;57848;51.938;15.520;2024-02-26T05:59:30;20.40;;;9.80;;
70420;SDS011;57848;51.938;15.520;2024-02-26T06:01:55;25.27;;;10.53;;
70420;SDS011;57848;51.938;15.520;2024-02-26T06:04:20;24.60;;;11.10;;
70420;SDS011;57848;51.938;15.520;2024-02-26T06:06:46;24.03;;;11.53;;
70420;SDS011;57848;51.938;15.520;2024-02-26T06:09:11;26.98;;;11.68;;
70420;SDS011;57848;51.938;15.520;2024-02-26T06:11:37;27.60;;;11.43;;
70420;SDS011;57848;51.938;15.520;2024-02-26T06:14:03;28.42;;;12.43;;
70420;SDS011;57848;51.938;15.520;2024-02-26T06:16:28;30.13;;;13.53;;
70420;SDS011;57848;51.938;15.520;2024-02-26T06:18:54;27.57;;;12.37;;
70420;SDS011;57848;51.938;15.520;2024-02-26T06:21:19;24.43;;;11.73;;
70420;SDS011;57848;51.938;15.520;2024-02-26T06:23:44;25.42;;;11.90;;
70420;SDS011;57848;51.938;15.520;2024-02-26T06:26:10;21.23;;;11.87;;
70420;SDS011;57848;51.938;15.520;2024-02-26T06:28:35;27.03;;;11.23;;
70420;SDS011;57848;51.938;15.520;2024-02-26T06:31:01;27.55;;;12.50;;
70420;SDS011;57848;51.938;15.520;2024-02-26T06:33:27;30.37;;;13.50;;
70420;SDS011;57848;51.938;15.520;2024-02-26T06:35:53;28.60;;;13.68;;
70420;SDS011;57848;51.938;15.520;2024-02-26T06:38:18;30.37;;;12.80;;
70420;SDS011;57848;51.938;15.520;2024-02-26T06:40:44;28.80;;;13.43;;
70420;SDS011;57848;51.938;15.520;2024-02-26T06:43:09;27.15;;;14.73;;
70420;SDS011;57848;51.938;15.520;2024-02-26T06:45:35;28.93;;;13.93;;
70420;SDS011;57848;51.938;15.520;2024-02-26T06:48:00;25.17;;;13.27;;
70420;SDS011;57848;51.938;15.520;2024-02-26T06:50:26;28.80;;;13.73;;
70420;SDS011;57848;51.938;15.520;2024-02-26T06:52:51;34.63;;;15.50;;
70420;SDS011;57848;51.938;15.520;2024-02-26T06:55:17;31.17;;;15.73;;
70420;SDS011;57848;51.938;15.520;2024-02-26T06:57:42;33.27;;;14.33;;
70420;SDS011;57848;51.938;15.520;2024-02-26T07:00:08;30.83;;;14.03;;
70420;SDS011;57848;51.938;15.520;2024-02-26T07:02:37;30.42;;;14.40;;
70420;SDS011;57848;51.938;15.520;2024-02-26T07:05:02;33.43;;;14.57;;
70420;SDS011;57848;51.938;15.520;2024-02-26T07:07:28;34.90;;;15.23;;
70420;SDS011;57848;51.938;15.520;2024-02-26T07:09:54;33.92;;;14.73;;
70420;SDS011;57848;51.938;15.520;2024-02-26T07:12:20;29.70;;;12.60;;
70420;SDS011;57848;51.938;15.520;2024-02-26T07:14:46;26.00;;;13.25;;
70420;SDS011;57848;51.938;15.520;2024-02-26T07:17:12;30.42;;;13.07;;
70420;SDS011;57848;51.938;15.520;2024-02-26T07:19:37;30.57;;;12.33;;
70420;SDS011;57848;51.938;15.520;2024-02-26T07:22:04;25.83;;;12.75;;
70420;SDS011;57848;51.938;15.520;2024-02-26T07:24:29;27.17;;;12.73;;
70420;SDS011;57848;51.938;15.520;2024-02-26T07:26:55;28.60;;;12.70;;
70420;SDS011;57848;51.938;15.520;2024-02-26T07:29:20;26.88;;;12.05;;
70420;SDS011;57848;51.938;15.520;2024-02-26T07:31:47;22.07;;;9.90;;
70420;SDS011;57848;51.938;15.520;2024-02-26T07:34:12;25.33;;;12.85;;
70420;SDS011;57848;51.938;15.520;2024-02-26T07:36:38;22.85;;;10.65;;
70420;SDS011;57848;51.938;15.520;2024-02-26T07:39:04;29.23;;;11.13;;
70420;SDS011;57848;51.938;15.520;2024-02-26T07:41:29;25.97;;;11.03;;
70420;SDS011;57848;51.938;15.520;2024-02-26T07:43:54;27.00;;;12.27;;
70420;SDS011;57848;51.938;15.520;2024-02-26T07:46:20;29.80;;;11.43;;
70420;SDS011;57848;51.938;15.520;2024-02-26T07:48:45;27.20;;;12.00;;
70420;SDS011;57848;51.938;15.520;2024-02-26T07:51:14;26.57;;;12.20;;
70420;SDS011;57848;51.938;15.520;2024-02-26T07:53:39;26.40;;;10.95;;
70420;SDS011;57848;51.938;15.520;2024-02-26T07:56:05;22.02;;;10.02;;
70420;SDS011;57848;51.938;15.520;2024-02-26T07:58:32;23.87;;;9.30;;
70420;SDS011;57848;51.938;15.520;2024-02-26T08:00:58;21.63;;;9.82;;
70420;SDS011;57848;51.938;15.520;2024-02-26T08:03:23;26.87;;;11.33;;
70420;SDS011;57848;51.938;15.520;2024-02-26T08:05:49;23.43;;;10.53;;
70420;SDS011;57848;51.938;15.520;2024-02-26T08:08:14;30.07;;;12.23;;
70420;SDS011;57848;51.938;15.520;2024-02-26T08:10:39;19.90;;;9.43;;
70420;SDS011;57848;51.938;15.520;2024-02-26T08:13:05;22.67;;;9.53;;
70420;SDS011;57848;51.938;15.520;2024-02-26T08:15:31;23.20;;;9.10;;
70420;SDS011;57848;51.938;15.520;2024-02-26T08:17:57;22.73;;;9.38;;
70420;SDS011;57848;51.938;15.520;2024-02-26T08:20:23;21.70;;;9.33;;
70420;SDS011;57848;51.938;15.520;2024-02-26T08:22:48;16.42;;;8.85;;
70420;SDS011;57848;51.938;15.520;2024-02-26T08:25:14;21.43;;;9.57;;
70420;SDS011;57848;51.938;15.520;2024-02-26T08:27:41;19.17;;;8.40;;
70420;SDS011;57848;51.938;15.520;2024-02-26T08:30:06;21.00;;;9.07;;
70420;SDS011;57848;51.938;15.520;2024-02-26T08:32:32;19.55;;;7.53;;
70420;SDS011;57848;51.938;15.520;2024-02-26T08:34:58;19.60;;;7.80;;
70420;SDS011;57848;51.938;15.520;2024-02-26T08:37:23;20.27;;;8.13;;
70420;SDS011;57848;51.938;15.520;2024-02-26T08:39:48;15.53;;;7.37;;
70420;SDS011;57848;51.938;15.520;2024-02-26T08:42:14;15.52;;;6.68;;
70420;SDS011;57848;51.938;15.520;2024-02-26T08:44:39;17.57;;;6.30;;
70420;SDS011;57848;51.938;15.520;2024-02-26T08:47:05;17.43;;;7.27;;
70420;SDS011;57848;51.938;15.520;2024-02-26T08:49:30;19.17;;;6.93;;
70420;SDS011;57848;51.938;15.520;2024-02-26T08:51:56;27.58;;;9.70;;
70420;SDS011;57848;51.938;15.520;2024-02-26T08:54:22;19.83;;;8.90;;
70420;SDS011;57848;51.938;15.520;2024-02-26T08:56:47;21.10;;;8.38;;
70420;SDS011;57848;51.938;15.520;2024-02-26T08:59:12;22.20;;;8.97;;
70420;SDS011;57848;51.938;15.520;2024-02-26T09:01:38;20.92;;;8.82;;
70420;SDS011;57848;51.938;15.520;2024-02-26T09:04:04;19.43;;;8.03;;
70420;SDS011;57848;51.938;15.520;2024-02-26T09:06:29;17.27;;;8.60;;
70420;SDS011;57848;51.938;15.520;2024-02-26T09:08:55;20.53;;;9.23;;
70420;SDS011;57848;51.938;15.520;2024-02-26T09:11:20;17.38;;;9.10;;
70420;SDS011;57848;51.938;15.520;2024-02-26T09:13:46;20.73;;;9.10;;
70420;SDS011;57848;51.938;15.520;2024-02-26T09:16:11;22.38;;;9.77;;
70420;SDS011;57848;51.938;15.520;2024-02-26T09:18:37;19.63;;;9.83;;
70420;SDS011;57848;51.938;15.520;2024-02-26T09:21:06;21.07;;;10.60;;
70420;SDS011;57848;51.938;15.520;2024-02-26T09:23:31;23.60;;;10.07;;
70420;SDS011;57848;51.938;15.520;2024-02-26T09:25:57;23.90;;;10.65;;
70420;SDS011;57848;51.938;15.520;2024-02-26T09:28:23;24.07;;;10.97;;
70420;SDS011;57848;51.938;15.520;2024-02-26T09:30:48;23.60;;;10.87;;
70420;SDS011;57848;51.938;15.520;2024-02-26T09:33:14;24.37;;;11.17;;
70420;SDS011;57848;51.938;15.520;2024-02-26T09:35:39;26.33;;;11.10;;
70420;SDS011;57848;51.938;15.520;2024-02-26T09:38:05;25.70;;;12.00;;
70420;SDS011;57848;51.938;15.520;2024-02-26T09:40:30;23.90;;;11.47;;
70420;SDS011;57848;51.938;15.520;2024-02-26T09:42:59;24.65;;;11.57;;
70420;SDS011;57848;51.938;15.520;2024-02-26T09:45:26;26.77;;;12.07;;
70420;SDS011;57848;51.938;15.520;2024-02-26T09:47:53;25.63;;;12.23;;
70420;SDS011;57848;51.938;15.520;2024-02-26T09:50:20;24.65;;;10.85;;
70420;SDS011;57848;51.938;15.520;2024-02-26T09:52:47;28.17;;;12.73;;
70420;SDS011;57848;51.938;15.520;2024-02-26T09:55:15;36.72;;;18.60;;
70420;SDS011;57848;51.938;15.520;2024-02-26T09:57:44;35.40;;;18.87;;
70420;SDS011;57848;51.938;15.520;2024-02-26T10:00:14;53.60;;;23.13;;
70420;SDS011;57848;51.938;15.520;2024-02-26T10:02:43;38.15;;;19.50;;
70420;SDS011;57848;51.938;15.520;2024-02-26T10:05:17;32.43;;;16.43;;
70420;SDS011;57848;51.938;15.520;2024-02-26T10:07:45;32.45;;;16.50;;
70420;SDS011;57848;51.938;15.520;2024-02-26T10:10:11;34.85;;;16.63;;
70420;SDS011;57848;51.938;15.520;2024-02-26T10:12:38;33.47;;;16.67;;
70420;SDS011;57848;51.938;15.520;2024-02-26T10:15:03;33.80;;;17.23;;
70420;SDS011;57848;51.938;15.520;2024-02-26T10:17:28;33.20;;;15.73;;
70420;SDS011;57848;51.938;15.520;2024-02-26T10:19:54;33.03;;;16.07;;
70420;SDS011;57848;51.938;15.520;2024-02-26T10:22:21;30.33;;;15.23;;
70420;SDS011;57848;51.938;15.520;2024-02-26T10:24:47;28.77;;;15.68;;
70420;SDS011;57848;51.938;15.520;2024-02-26T10:27:13;32.17;;;15.80;;
70420;SDS011;57848;51.938;15.520;2024-02-26T10:29:39;34.45;;;14.00;;
70420;SDS011;57848;51.938;15.520;2024-02-26T10:32:06;23.65;;;12.27;;
70420;SDS011;57848;51.938;15.520;2024-02-26T10:34:32;22.70;;;11.23;;
70420;SDS011;57848;51.938;15.520;2024-02-26T10:37:01;24.53;;;12.47;;
70420;SDS011;57848;51.938;15.520;2024-02-26T10:39:27;21.27;;;10.98;;
70420;SDS011;57848;51.938;15.520;2024-02-26T10:41:53;19.50;;;11.03;;
70420;SDS011;57848;51.938;15.520;2024-02-26T10:44:18;27.45;;;15.13;;
70420;SDS011;57848;51.938;15.520;2024-02-26T10:46:44;24.37;;;12.23;;
70420;SDS011;57848;51.938;15.520;2024-02-26T10:49:15;22.55;;;12.23;;
70420;SDS011;57848;51.938;15.520;2024-02-26T10:51:44;24.00;;;12.63;;
70420;SDS011;57848;51.938;15.520;2024-02-26T10:54:12;27.90;;;12.68;;
70420;SDS011;57848;51.938;15.520;2024-02-26T10:56:40;20.97;;;12.43;;
70420;SDS011;57848;51.938;15.520;2024-02-26T10:59:09;22.75;;;13.63;;
70420;SDS011;57848;51.938;15.520;2024-02-26T11:01:35;23.80;;;12.65;;
70420;SDS011;57848;51.938;15.520;2024-02-26T11:04:03;21.38;;;12.13;;
70420;SDS011;57848;51.938;15.520;2024-02-26T11:06:29;25.38;;;13.20;;
70420;SDS011;57848;51.938;15.520;2024-02-26T11:08:56;23.20;;;12.90;;
70420;SDS011;57848;51.938;15.520;2024-02-26T11:11:23;21.20;;;12.82;;
70420;SDS011;57848;51.938;15.520;2024-02-26T11:13:49;19.45;;;11.70;;
70420;SDS011;57848;51.938;15.520;2024-02-26T11:16:20;21.48;;;12.35;;
70420;SDS011;57848;51.938;15.520;2024-02-26T11:18:47;21.35;;;13.55;;
70420;SDS011;57848;51.938;15.520;2024-02-26T11:21:15;24.90;;;12.60;;
70420;SDS011;57848;51.938;15.520;2024-02-26T11:23:42;22.92;;;13.32;;
70420;SDS011;57848;51.938;15.520;2024-02-26T11:26:08;23.58;;;13.90;;
70420;SDS011;57848;51.938;15.520;2024-02-26T11:28:35;23.27;;;14.15;;
70420;SDS011;57848;51.938;15.520;2024-02-26T11:31:02;26.77;;;14.75;;
70420;SDS011;57848;51.938;15.520;2024-02-26T11:33:29;25.80;;;13.57;;
70420;SDS011;57848;51.938;15.520;2024-02-26T11:35:55;23.45;;;14.10;;
70420;SDS011;57848;51.938;15.520;2024-02-26T11:38:21;24.00;;;15.30;;
70420;SDS011;57848;51.938;15.520;2024-02-26T11:40:48;25.33;;;14.55;;
70420;SDS011;57848;51.938;15.520;2024-02-26T11:43:15;27.27;;;14.75;;
70420;SDS011;57848;51.938;15.520;2024-02-26T11:48:15;26.52;;;14.02;;
70420;SDS011;57848;51.938;15.520;2024-02-26T11:50:42;28.95;;;15.40;;
70420;SDS011;57848;51.938;15.520;2024-02-26T11:53:20;26.08;;;15.57;;
70420;SDS011;57848;51.938;15.520;2024-02-26T11:55:45;23.73;;;13.93;;
70420;SDS011;57848;51.938;15.520;2024-02-26T11:58:11;29.73;;;16.73;;
70420;SDS011;57848;51.938;15.520;2024-02-26T12:00:36;28.87;;;15.03;;
70420;SDS011;57848;51.938;15.520;2024-02-26T12:03:04;31.40;;;17.05;;
70420;SDS011;57848;51.938;15.520;2024-02-26T12:05:33;31.55;;;16.20;;
70420;SDS011;57848;51.938;15.520;2024-02-26T12:08:05;25.80;;;14.53;;
70420;SDS011;57848;51.938;15.520;2024-02-26T12:10:33;28.05;;;14.43;;
70420;SDS011;57848;51.938;15.520;2024-02-26T12:13:08;28.48;;;15.38;;
70420;SDS011;57848;51.938;15.520;2024-02-26T12:15:38;27.30;;;14.48;;
70420;SDS011;57848;51.938;15.520;2024-02-26T12:18:05;29.00;;;15.73;;
70420;SDS011;57848;51.938;15.520;2024-02-26T12:20:33;24.83;;;13.20;;
70420;SDS011;57848;51.938;15.520;2024-02-26T12:23:00;26.33;;;13.60;;
70420;SDS011;57848;51.938;15.520;2024-02-26T12:25:28;30.95;;;16.10;;
70420;SDS011;57848;51.938;15.520;2024-02-26T12:27:54;24.30;;;13.57;;
70420;SDS011;57848;51.938;15.520;2024-02-26T12:30:20;25.48;;;13.32;;
70420;SDS011;57848;51.938;15.520;2024-02-26T12:32:50;20.17;;;12.30;;
70420;SDS011;57848;51.938;15.520;2024-02-26T12:35:16;24.05;;;13.50;;
70420;SDS011;57848;51.938;15.520;2024-02-26T12:37:45;24.23;;;12.80;;
70420;SDS011;57848;51.938;15.520;2024-02-26T12:40:11;27.48;;;14.10;;
70420;SDS011;57848;51.938;15.520;2024-02-26T12:42:38;22.58;;;12.55;;
70420;SDS011;57848;51.938;15.520;2024-02-26T12:45:08;24.73;;;13.03;;
70420;SDS011;57848;51.938;15.520;2024-02-26T12:47:38;23.58;;;12.50;;
70420;SDS011;57848;51.938;15.520;2024-02-26T12:50:04;25.55;;;12.07;;
70420;SDS011;57848;51.938;15.520;2024-02-26T12:52:31;24.05;;;12.25;;
70420;SDS011;57848;51.938;15.520;2024-02-26T12:54:58;24.50;;;13.40;;
70420;SDS011;57848;51.938;15.520;2024-02-26T12:57:24;25.53;;;13.33;;
70420;SDS011;57848;51.938;15.520;2024-02-26T12:59:50;26.38;;;13.05;;
70420;SDS011;57848;51.938;15.520;2024-02-26T13:02:16;24.40;;;12.35;;
70420;SDS011;57848;51.938;15.520;2024-02-26T13:04:42;24.80;;;12.23;;
70420;SDS011;57848;51.938;15.520;2024-02-26T13:07:07;21.87;;;12.30;;
70420;SDS011;57848;51.938;15.520;2024-02-26T13:09:33;21.42;;;10.98;;
70420;SDS011;57848;51.938;15.520;2024-02-26T13:12:03;23.98;;;12.13;;
70420;SDS011;57848;51.938;15.520;2024-02-26T13:14:30;18.80;;;8.63;;
70420;SDS011;57848;51.938;15.520;2024-02-26T13:16:57;16.55;;;8.50;;
70420;SDS011;57848;51.938;15.520;2024-02-26T13:19:23;16.13;;;8.40;;
70420;SDS011;57848;51.938;15.520;2024-02-26T13:21:49;28.73;;;12.77;;
70420;SDS011;57848;51.938;15.520;2024-02-26T13:24:14;16.13;;;8.40;;
70420;SDS011;57848;51.938;15.520;2024-02-26T13:26:40;16.13;;;7.70;;
70420;SDS011;57848;51.938;15.520;2024-02-26T13:29:06;15.13;;;8.33;;
70420;SDS011;57848;51.938;15.520;2024-02-26T13:31:31;21.43;;;8.17;;
70420;SDS011;57848;51.938;15.520;2024-02-26T13:34:03;17.40;;;8.23;;
70420;SDS011;57848;51.938;15.520;2024-02-26T13:36:28;16.70;;;7.77;;
70420;SDS011;57848;51.938;15.520;2024-02-26T13:38:54;20.33;;;8.93;;
70420;SDS011;57848;51.938;15.520;2024-02-26T13:41:21;16.38;;;8.10;;
70420;SDS011;57848;51.938;15.520;2024-02-26T13:43:46;16.45;;;8.10;;
70420;SDS011;57848;51.938;15.520;2024-02-26T13:46:13;17.70;;;8.23;;
70420;SDS011;57848;51.938;15.520;2024-02-26T13:48:40;18.60;;;9.80;;
70420;SDS011;57848;51.938;15.520;2024-02-26T13:51:06;17.30;;;9.13;;
70420;SDS011;57848;51.938;15.520;2024-02-26T13:53:31;30.98;;;13.45;;
70420;SDS011;57848;51.938;15.520;2024-02-26T13:55:57;20.20;;;10.97;;
70420;SDS011;57848;51.938;15.520;2024-02-26T13:58:24;24.67;;;10.93;;
70420;SDS011;57848;51.938;15.520;2024-02-26T14:00:50;30.50;;;13.93;;
70420;SDS011;57848;51.938;15.520;2024-02-26T14:03:15;28.77;;;14.13;;
70420;SDS011;57848;51.938;15.520;2024-02-26T14:05:41;31.77;;;15.50;;
70420;SDS011;57848;51.938;15.520;2024-02-26T14:08:07;29.52;;;14.60;;
70420;SDS011;57848;51.938;15.520;2024-02-26T14:10:32;24.53;;;11.97;;